createdAt,value
2018-07-23T00:01:11.731Z,95.58
2018-07-23T00:03:38.748Z,95.89
2018-07-23T00:06:05.789Z,96.57
2018-07-23T00:08:32.920Z,96.07
2018-07-23T00:10:59.932Z,96.84
2018-07-23T00:13:27.066Z,96.36
2018-07-23T00:15:54.426Z,96.84
2018-07-23T00:18:21.541Z,96.63
2018-07-23T00:20:48.586Z,96.28
2018-07-23T00:23:15.627Z,97.19
2018-07-23T00:25:42.693Z,97.09
2018-07-23T00:28:09.725Z,96.60
2018-07-23T00:30:36.800Z,97.11
2018-07-23T00:33:03.915Z,96.61
2018-07-23T00:35:31.084Z,97.46
2018-07-23T00:37:58.388Z,97.06
2018-07-23T00:40:25.388Z,97.43
2018-07-23T00:42:52.831Z,97.82
2018-07-23T00:45:19.860Z,97.52
2018-07-23T00:47:46.891Z,97.75
2018-07-23T00:50:13.937Z,97.83
2018-07-23T00:52:40.969Z,98.06
2018-07-23T00:55:08.205Z,98.44
2018-07-23T00:57:35.308Z,99.24
2018-07-23T01:00:02.397Z,99.02
2018-07-23T01:02:29.852Z,98.89
2018-07-23T01:04:56.857Z,99.30
2018-07-23T01:07:24.351Z,99.52
2018-07-23T01:09:52.018Z,99.73
2018-07-23T01:12:34.869Z,99.48
2018-07-23T01:15:01.893Z,99.35
2018-07-23T01:17:28.938Z,99.98
2018-07-23T01:19:57.101Z,100.00
2018-07-23T01:22:25.065Z,100.00
2018-07-23T01:24:52.715Z,99.11
2018-07-23T01:27:20.008Z,100.00
2018-07-23T01:29:47.058Z,100.00
2018-07-23T01:32:14.175Z,99.92
2018-07-23T01:34:41.288Z,100.00
2018-07-23T01:37:08.293Z,100.00
2018-07-23T01:39:35.383Z,100.00
2018-07-23T01:42:02.788Z,100.00
2018-07-23T01:44:29.783Z,100.00
2018-07-23T01:46:56.885Z,100.00
2018-07-23T01:49:23.909Z,100.00
2018-07-23T01:51:50.924Z,100.00
2018-07-23T01:54:18.000Z,100.00
2018-07-23T01:56:45.272Z,100.00
2018-07-23T01:59:12.300Z,100.00
2018-07-23T02:01:39.297Z,100.00
2018-07-23T02:04:06.352Z,100.00
2018-07-23T02:06:33.368Z,100.00
2018-07-23T02:09:00.409Z,100.00
2018-07-23T02:11:27.401Z,100.00
2018-07-23T02:13:54.492Z,100.00
2018-07-23T02:16:21.512Z,100.00
2018-07-23T02:18:48.512Z,100.00
2018-07-23T02:21:23.211Z,100.00
2018-07-23T02:23:50.228Z,100.00
2018-07-23T02:26:17.237Z,100.00
2018-07-23T02:28:44.272Z,100.00
2018-07-23T02:31:11.286Z,100.00
2018-07-23T02:33:38.286Z,100.00
2018-07-23T02:36:05.352Z,100.00
2018-07-23T02:38:32.390Z,100.00
2018-07-23T02:40:59.489Z,100.00
2018-07-23T02:43:26.549Z,100.00
2018-07-23T02:45:53.656Z,100.00
2018-07-23T02:48:20.683Z,100.00
2018-07-23T02:50:47.787Z,100.00
2018-07-23T02:53:14.952Z,100.00
2018-07-23T02:55:41.959Z,100.00
2018-07-23T02:58:08.993Z,100.00
2018-07-23T03:00:36.006Z,100.00
2018-07-23T03:03:03.064Z,100.00
2018-07-23T03:05:30.081Z,100.00
2018-07-23T03:07:57.078Z,100.00
2018-07-23T03:10:24.112Z,100.00
2018-07-23T03:12:51.137Z,100.00
2018-07-23T03:15:18.153Z,100.00
2018-07-23T03:17:45.201Z,100.00
2018-07-23T03:20:12.294Z,100.00
2018-07-23T03:22:39.338Z,100.00
2018-07-23T03:25:06.455Z,100.00
2018-07-23T03:27:33.467Z,100.00
2018-07-23T03:30:00.593Z,100.00
2018-07-23T03:32:27.616Z,100.00
2018-07-23T03:34:54.620Z,100.00
2018-07-23T03:37:21.633Z,100.00
2018-07-23T03:39:48.625Z,100.00
2018-07-23T03:42:15.644Z,100.00
2018-07-23T03:44:42.784Z,100.00
2018-07-23T03:47:09.904Z,100.00
2018-07-23T03:49:36.908Z,100.00
2018-07-23T03:52:03.964Z,100.00
2018-07-23T03:54:30.975Z,100.00
2018-07-23T03:56:58.009Z,100.00
2018-07-23T03:59:25.293Z,100.00
2018-07-23T04:01:53.613Z,100.00
2018-07-23T04:04:22.021Z,100.00
2018-07-23T04:06:50.435Z,100.00
2018-07-23T04:09:19.051Z,100.00
2018-07-23T04:11:47.550Z,100.00
2018-07-23T04:14:14.945Z,100.00
2018-07-23T04:16:42.049Z,100.00
2018-07-23T04:19:09.082Z,100.00
2018-07-23T04:21:36.400Z,100.00
2018-07-23T04:24:03.465Z,100.00
2018-07-23T04:26:30.519Z,100.00
2018-07-23T04:28:57.562Z,100.00
2018-07-23T04:31:25.010Z,100.00
2018-07-23T04:33:52.015Z,100.00
2018-07-23T04:36:19.057Z,100.00
2018-07-23T04:38:46.056Z,100.00
2018-07-23T04:41:13.065Z,100.00
2018-07-23T04:43:40.168Z,100.00
2018-07-23T04:46:07.189Z,100.00
2018-07-23T04:48:34.769Z,100.00
2018-07-23T04:51:01.928Z,100.00
2018-07-23T04:53:29.125Z,100.00
2018-07-23T04:55:56.126Z,100.00
2018-07-23T04:58:23.140Z,100.00
2018-07-23T05:00:50.175Z,100.00
2018-07-23T05:03:17.208Z,100.00
2018-07-23T05:05:44.244Z,100.00
2018-07-23T05:08:11.285Z,100.00
2018-07-23T05:10:38.289Z,100.00
2018-07-23T05:13:05.470Z,100.00
2018-07-23T05:15:32.567Z,100.00
2018-07-23T05:17:59.611Z,100.00
2018-07-23T05:20:26.650Z,100.00
2018-07-23T05:22:53.741Z,100.00
2018-07-23T05:25:20.765Z,100.00
2018-07-23T05:27:47.797Z,100.00
2018-07-23T05:30:14.816Z,100.00
2018-07-23T05:32:41.820Z,100.00
2018-07-23T05:35:08.849Z,100.00
2018-07-23T05:37:35.868Z,100.00
2018-07-23T05:40:02.956Z,100.00
2018-07-23T05:42:29.959Z,100.00
2018-07-23T05:44:56.986Z,100.00
2018-07-23T05:47:24.005Z,100.00
2018-07-23T05:49:51.100Z,99.98
2018-07-23T05:52:18.108Z,99.78
2018-07-23T05:54:45.168Z,99.58
2018-07-23T05:57:12.584Z,99.14
2018-07-23T05:59:39.772Z,99.07
2018-07-23T06:02:06.844Z,97.81
2018-07-23T06:04:33.873Z,97.59
2018-07-23T06:07:01.058Z,96.75
2018-07-23T06:09:27.970Z,96.32
2018-07-23T06:11:55.018Z,96.48
2018-07-23T06:14:22.218Z,97.16
2018-07-23T06:16:49.318Z,96.69
2018-07-23T06:19:16.383Z,95.42
2018-07-23T06:21:43.408Z,95.79
2018-07-23T06:24:10.464Z,95.55
2018-07-23T06:26:37.500Z,95.26
2018-07-23T06:29:04.530Z,95.02
2018-07-23T06:31:31.617Z,94.38
2018-07-23T06:33:58.647Z,93.99
2018-07-23T06:36:25.698Z,94.08
2018-07-23T06:38:52.687Z,93.58
2018-07-23T06:41:19.739Z,92.95
2018-07-23T06:43:46.838Z,92.29
2018-07-23T06:46:13.969Z,91.88
2018-07-23T06:48:40.986Z,92.62
2018-07-23T06:51:08.108Z,91.33
2018-07-23T06:53:35.576Z,90.59
2018-07-23T06:56:02.699Z,90.03
2018-07-23T06:58:29.781Z,89.87
2018-07-23T07:00:56.793Z,87.73
2018-07-23T07:03:23.848Z,87.95
2018-07-23T07:05:50.820Z,86.47
2018-07-23T07:08:17.948Z,86.88
2018-07-23T07:10:44.965Z,86.82
2018-07-23T07:13:12.005Z,86.04
2018-07-23T07:15:39.027Z,85.28
2018-07-23T07:18:06.058Z,85.20
2018-07-23T07:20:33.064Z,84.47
2018-07-23T07:23:00.106Z,84.58
2018-07-23T07:25:27.173Z,84.73
2018-07-23T07:27:54.120Z,83.26
2018-07-23T07:30:21.182Z,82.87
2018-07-23T07:32:48.251Z,83.54
2018-07-23T07:35:15.813Z,82.62
2018-07-23T07:37:42.826Z,82.86
2018-07-23T07:40:09.849Z,81.74
2018-07-23T07:42:37.017Z,81.32
2018-07-23T07:45:04.467Z,78.21
2018-07-23T07:47:31.577Z,77.02
2018-07-23T07:49:58.585Z,75.05
2018-07-23T07:52:25.622Z,76.65
2018-07-23T07:54:52.716Z,77.04
2018-07-23T07:57:19.766Z,76.60
2018-07-23T07:59:46.801Z,77.43
2018-07-23T08:02:13.801Z,76.34
2018-07-23T08:04:40.890Z,75.87
2018-07-23T08:07:08.032Z,77.16
2018-07-23T08:09:35.196Z,75.45
2018-07-23T08:12:02.314Z,74.88
2018-07-23T08:14:29.323Z,76.09
2018-07-23T08:16:56.360Z,74.50
2018-07-23T08:19:23.485Z,74.94
2018-07-23T08:21:50.540Z,75.54
2018-07-23T08:24:17.562Z,75.41
2018-07-23T08:26:44.790Z,75.75
2018-07-23T08:29:11.946Z,75.13
2018-07-23T08:31:39.044Z,76.05
2018-07-23T08:34:06.096Z,74.63
2018-07-23T08:36:33.089Z,74.15
2018-07-23T08:39:00.305Z,72.12
2018-07-23T08:41:27.368Z,72.06
2018-07-23T08:43:54.388Z,72.36
2018-07-23T08:46:21.468Z,72.69
2018-07-23T08:48:48.504Z,72.15
2018-07-23T08:51:15.594Z,72.03
2018-07-23T08:53:42.769Z,72.61
2018-07-23T08:56:09.953Z,70.86
2018-07-23T08:58:36.933Z,71.69
2018-07-23T09:01:03.960Z,71.17
2018-07-23T09:03:31.105Z,70.79
2018-07-23T09:05:58.127Z,70.03
2018-07-23T09:08:25.285Z,71.62
2018-07-23T09:10:52.349Z,70.77
2018-07-23T09:13:19.480Z,71.07
2018-07-23T09:15:46.552Z,69.73
2018-07-23T09:18:13.600Z,68.79
2018-07-23T09:20:40.709Z,68.29
2018-07-23T09:23:07.817Z,67.62
2018-07-23T09:25:40.604Z,67.72
2018-07-23T09:28:07.708Z,67.30
2018-07-23T09:30:40.550Z,66.06
2018-07-23T09:33:07.568Z,66.84
2018-07-23T09:35:34.644Z,66.11
2018-07-23T09:38:01.765Z,66.94
2018-07-23T09:40:28.805Z,63.85
2018-07-23T09:42:55.824Z,65.45
2018-07-23T09:45:22.919Z,65.10
2018-07-23T09:47:49.918Z,65.31
2018-07-23T09:50:17.027Z,65.18
2018-07-23T09:52:44.387Z,65.71
2018-07-23T09:55:11.394Z,63.87
2018-07-23T09:57:38.430Z,63.15
2018-07-23T10:00:05.603Z,63.96
2018-07-23T10:02:32.630Z,62.83
2018-07-23T10:04:59.672Z,61.25
2018-07-23T10:07:26.697Z,59.91
2018-07-23T10:09:53.802Z,60.59
2018-07-23T10:12:20.885Z,59.15
2018-07-23T10:14:47.970Z,59.23
2018-07-23T10:17:15.015Z,59.93
2018-07-23T10:19:42.185Z,60.32
2018-07-23T10:22:09.326Z,60.65
2018-07-23T10:24:36.299Z,59.74
2018-07-23T10:27:03.449Z,60.06
2018-07-23T10:29:30.609Z,56.54
2018-07-23T10:31:57.666Z,56.38
2018-07-23T10:34:24.736Z,55.71
2018-07-23T10:36:51.830Z,56.78
2018-07-23T10:39:18.956Z,57.22
2018-07-23T10:41:45.965Z,56.23
2018-07-23T10:44:13.016Z,58.65
2018-07-23T10:46:40.069Z,59.18
2018-07-23T10:49:07.169Z,59.60
2018-07-23T10:51:34.544Z,59.30
2018-07-23T10:54:01.662Z,55.50
2018-07-23T10:56:29.712Z,54.35
2018-07-23T10:58:57.017Z,52.94
2018-07-23T11:01:24.126Z,53.47
2018-07-23T11:03:51.297Z,54.60
2018-07-23T11:06:18.555Z,55.91
2018-07-23T11:08:45.769Z,56.78
2018-07-23T11:11:12.973Z,56.51
2018-07-23T11:13:40.004Z,57.22
2018-07-23T11:16:07.025Z,55.71
2018-07-23T11:18:34.317Z,55.69
2018-07-23T11:21:01.596Z,57.14
2018-07-23T11:23:28.844Z,56.78
2018-07-23T11:25:55.919Z,57.09
2018-07-23T11:28:22.957Z,56.52
2018-07-23T11:30:50.222Z,55.52
2018-07-23T11:33:17.393Z,54.24
2018-07-23T11:35:44.649Z,54.36
2018-07-23T11:38:11.660Z,54.71
2018-07-23T11:40:38.840Z,53.99
2018-07-23T11:43:06.190Z,54.80
2018-07-23T11:45:33.333Z,55.67
2018-07-23T11:48:00.616Z,53.58
2018-07-23T11:50:27.687Z,53.71
2018-07-23T11:52:54.817Z,54.42
2018-07-23T11:55:22.133Z,54.24
2018-07-23T11:57:49.174Z,52.42
2018-07-23T12:00:16.277Z,53.75
2018-07-23T12:02:43.288Z,55.09
2018-07-23T12:05:10.545Z,54.84
2018-07-23T12:07:37.868Z,54.04
2018-07-23T12:10:04.877Z,53.94
2018-07-23T12:12:31.947Z,54.57
2018-07-23T12:14:59.660Z,53.41
2018-07-23T12:17:26.693Z,52.25
2018-07-23T12:19:53.723Z,51.46
2018-07-23T12:22:21.540Z,51.01
2018-07-23T12:24:48.813Z,51.39
2018-07-23T12:27:15.969Z,51.77
2018-07-23T12:29:42.982Z,50.99
2018-07-23T12:32:10.493Z,48.32
2018-07-23T12:34:37.624Z,48.72
2018-07-23T12:37:04.896Z,49.50
2018-07-23T12:39:32.172Z,50.68
2018-07-23T12:41:59.235Z,51.02
2018-07-23T12:44:26.326Z,51.52
2018-07-23T12:46:53.580Z,50.89
2018-07-23T12:49:21.119Z,52.48
2018-07-23T12:51:48.352Z,52.23
2018-07-23T12:54:15.382Z,53.69
2018-07-23T12:56:42.648Z,51.86
2018-07-23T12:59:09.646Z,52.26
2018-07-23T13:01:36.721Z,52.95
2018-07-23T13:04:03.921Z,54.17
2018-07-23T13:06:30.924Z,53.83
2018-07-23T13:08:57.920Z,53.13
2018-07-23T13:11:25.620Z,51.41
2018-07-23T13:13:52.819Z,51.21
2018-07-23T13:16:19.936Z,50.45
2018-07-23T13:18:47.393Z,50.25
2018-07-23T13:21:14.564Z,51.72
2018-07-23T13:26:20.105Z,53.63
2018-07-23T13:28:47.093Z,53.75
2018-07-23T13:31:14.417Z,51.29
2018-07-23T13:33:41.416Z,51.93
2018-07-23T13:36:08.481Z,52.36
2018-07-23T13:38:36.040Z,52.56
2018-07-23T13:41:03.622Z,49.24
2018-07-23T13:43:30.759Z,49.36
2018-07-23T13:45:58.200Z,48.07
2018-07-23T13:48:25.307Z,47.88
2018-07-23T13:50:52.467Z,45.13
2018-07-23T13:53:19.889Z,44.79
2018-07-23T13:55:46.992Z,43.43
2018-07-23T13:58:14.013Z,44.28
2018-07-23T14:00:41.051Z,44.09
2018-07-23T14:03:08.236Z,47.08
2018-07-23T14:05:35.589Z,46.92
2018-07-23T14:08:02.724Z,46.02
2018-07-23T14:10:30.055Z,48.14
2018-07-23T14:15:38.720Z,46.60
2018-07-23T14:18:05.873Z,45.38
2018-07-23T14:20:32.870Z,46.18
2018-07-23T14:22:59.869Z,44.93
2018-07-23T14:25:26.972Z,44.69
2018-07-23T14:27:53.983Z,44.16
2018-07-23T14:30:21.254Z,45.26
2018-07-23T14:32:48.393Z,45.08
2018-07-23T14:35:15.431Z,45.09
2018-07-23T14:37:42.785Z,48.47
2018-07-23T14:40:09.794Z,47.28
2018-07-23T14:42:36.788Z,46.05
2018-07-23T14:45:03.964Z,45.27
2018-07-23T14:47:31.173Z,44.93
2018-07-23T14:49:58.185Z,42.30
2018-07-23T14:52:25.176Z,44.48
2018-07-23T14:54:52.423Z,43.49
2018-07-23T14:57:19.431Z,44.07
2018-07-23T14:59:46.452Z,45.50
2018-07-23T15:02:13.481Z,45.75
2018-07-23T15:04:40.497Z,44.12
2018-07-23T15:07:07.953Z,45.57
2018-07-23T15:09:35.321Z,45.27
2018-07-23T15:12:02.329Z,44.18
2018-07-23T15:14:29.324Z,44.82
2018-07-23T15:16:56.423Z,44.79
2018-07-23T15:19:23.441Z,44.92
2018-07-23T15:21:50.477Z,46.43
2018-07-23T15:24:17.489Z,45.74
2018-07-23T15:26:44.529Z,45.91
2018-07-23T15:29:11.799Z,45.18
2018-07-23T15:31:38.836Z,44.65
2018-07-23T15:34:05.858Z,46.16
2018-07-23T15:36:33.107Z,46.20
2018-07-23T15:39:00.117Z,46.42
2018-07-23T15:41:27.165Z,46.12
2018-07-23T15:43:54.268Z,46.98
2018-07-23T15:46:21.280Z,47.18
2018-07-23T15:48:48.490Z,46.93
2018-07-23T15:51:15.541Z,47.78
2018-07-23T15:56:23.964Z,45.40
2018-07-23T15:58:50.998Z,47.24
2018-07-23T16:01:18.017Z,46.65
2018-07-23T16:03:45.018Z,46.57
2018-07-23T16:06:12.030Z,46.35
2018-07-23T16:08:39.296Z,46.06
2018-07-23T16:11:06.442Z,45.18
2018-07-23T16:13:33.504Z,45.94
2018-07-23T16:16:00.576Z,46.73
2018-07-23T16:18:27.581Z,46.60
2018-07-23T16:20:54.833Z,47.40
2018-07-23T16:23:21.928Z,47.63
2018-07-23T16:25:49.191Z,46.22
2018-07-23T16:28:16.609Z,47.23
2018-07-23T16:30:43.630Z,47.33
2018-07-23T16:33:10.624Z,48.30
2018-07-23T16:35:37.877Z,49.21
2018-07-23T16:38:04.946Z,48.50
2018-07-23T16:40:32.200Z,47.31
2018-07-23T16:42:59.388Z,47.21
2018-07-23T16:45:26.400Z,47.75
2018-07-23T16:47:53.753Z,47.89
2018-07-23T16:50:20.952Z,47.99
2018-07-23T16:52:48.228Z,46.66
2018-07-23T16:55:15.228Z,49.27
2018-07-23T16:57:42.342Z,48.14
2018-07-23T17:00:09.377Z,49.14
2018-07-23T17:02:36.649Z,49.25
2018-07-23T17:05:03.909Z,48.40
2018-07-23T17:07:31.288Z,49.03
2018-07-23T17:09:58.530Z,48.24
2018-07-23T17:12:25.537Z,48.69
2018-07-23T17:14:52.641Z,48.84
2018-07-23T17:17:19.651Z,49.29
2018-07-23T17:19:46.697Z,48.78
2018-07-23T17:22:14.001Z,49.43
2018-07-23T17:24:41.098Z,49.34
2018-07-23T17:27:08.101Z,50.79
2018-07-23T17:29:35.737Z,50.03
2018-07-23T17:32:02.816Z,48.87
2018-07-23T17:34:30.080Z,48.98
2018-07-23T17:36:57.176Z,48.70
2018-07-23T17:39:24.277Z,49.23
2018-07-23T17:41:51.414Z,50.37
2018-07-23T17:44:18.500Z,50.11
2018-07-23T17:46:45.534Z,50.66
2018-07-23T17:49:12.743Z,50.12
2018-07-23T17:51:39.840Z,49.55
2018-07-23T17:54:06.917Z,50.56
2018-07-23T17:56:33.972Z,50.14
2018-07-23T17:59:01.202Z,51.21
2018-07-23T18:01:28.473Z,49.83
2018-07-23T18:03:56.305Z,51.11
2018-07-23T18:06:23.569Z,51.04
2018-07-23T18:08:50.562Z,50.52
2018-07-23T18:11:17.946Z,49.38
2018-07-23T18:13:44.941Z,49.76
2018-07-23T18:16:12.173Z,49.34
2018-07-23T18:18:39.189Z,49.48
2018-07-23T18:21:06.310Z,49.26
2018-07-23T18:23:33.336Z,49.82
2018-07-23T18:26:00.420Z,49.36
2018-07-23T18:28:27.481Z,50.12
2018-07-23T18:30:54.516Z,50.75
2018-07-23T18:33:21.671Z,50.38
2018-07-23T18:35:48.744Z,51.03
2018-07-23T18:38:15.986Z,51.41
2018-07-23T18:40:43.058Z,51.61
2018-07-23T18:43:10.110Z,51.27
2018-07-23T18:45:37.092Z,52.22
2018-07-23T18:49:12.941Z,51.28
2018-07-23T18:51:46.692Z,52.60
2018-07-23T18:54:13.713Z,53.25
2018-07-23T18:56:47.536Z,53.13
2018-07-23T18:59:14.695Z,54.08
2018-07-23T19:01:41.748Z,54.04
2018-07-23T19:04:09.072Z,53.52
2018-07-23T19:06:36.230Z,53.54
2018-07-23T19:09:05.661Z,53.94
2018-07-23T19:11:32.919Z,54.94
2018-07-23T19:14:00.220Z,54.67
2018-07-23T19:16:27.321Z,54.92
2018-07-23T19:18:54.401Z,54.68
2018-07-23T19:21:21.634Z,55.95
2018-07-23T19:23:48.647Z,55.95
2018-07-23T19:26:15.712Z,55.84
2018-07-23T19:28:42.774Z,56.01
2018-07-23T19:31:09.785Z,56.45
2018-07-23T19:33:36.865Z,56.08
2018-07-23T19:36:03.885Z,56.69
2018-07-23T19:38:30.913Z,57.93
2018-07-23T19:40:57.931Z,57.05
2018-07-23T19:43:25.021Z,58.19
2018-07-23T19:45:52.053Z,58.40
2018-07-23T19:48:19.053Z,57.92
2018-07-23T19:50:46.128Z,58.09
2018-07-23T19:53:13.589Z,59.08
2018-07-23T19:55:40.674Z,58.62
2018-07-23T19:58:07.710Z,60.03
2018-07-23T20:00:35.053Z,59.06
2018-07-23T20:03:02.172Z,59.39
2018-07-23T20:05:32.337Z,59.87
2018-07-23T20:07:59.637Z,62.15
2018-07-23T20:10:26.648Z,60.76
2018-07-23T20:12:54.271Z,61.58
2018-07-23T20:15:21.293Z,61.34
2018-07-23T20:17:48.489Z,62.09
2018-07-23T20:20:15.725Z,62.80
2018-07-23T20:22:42.864Z,63.37
2018-07-23T20:25:09.882Z,63.75
2018-07-23T20:27:37.033Z,63.89
2018-07-23T20:30:04.726Z,63.90
2018-07-23T20:32:32.005Z,64.90
2018-07-23T20:34:59.771Z,65.05
2018-07-23T20:37:26.744Z,64.80
2018-07-23T20:39:53.826Z,64.25
2018-07-23T20:42:21.176Z,65.05
2018-07-23T20:44:48.176Z,63.83
2018-07-23T20:47:15.381Z,64.56
2018-07-23T20:49:42.717Z,66.45
2018-07-23T20:52:10.026Z,64.77
2018-07-23T20:54:37.088Z,66.07
2018-07-23T20:57:04.172Z,67.76
2018-07-23T20:59:31.476Z,65.91
2018-07-23T21:01:58.606Z,67.37
2018-07-23T21:04:25.649Z,67.67
2018-07-23T21:06:52.704Z,65.61
2018-07-23T21:09:19.740Z,66.67
2018-07-23T21:11:47.569Z,66.39
2018-07-23T21:14:14.620Z,66.66
2018-07-23T21:16:41.664Z,67.17
2018-07-23T21:19:08.666Z,67.58
2018-07-23T21:21:35.856Z,67.74
2018-07-23T21:24:02.946Z,68.82
2018-07-23T21:26:30.197Z,68.85
2018-07-23T21:28:57.496Z,69.35
2018-07-23T21:31:24.649Z,70.41
2018-07-23T21:33:52.156Z,70.03
2018-07-23T21:36:19.174Z,70.52
2018-07-23T21:38:46.534Z,71.34
2018-07-23T21:41:13.557Z,70.58
2018-07-23T21:43:40.569Z,71.30
2018-07-23T21:46:07.641Z,70.95
2018-07-23T21:48:35.267Z,71.30
2018-07-23T21:51:02.620Z,70.65
2018-07-23T21:53:29.785Z,72.04
2018-07-23T21:55:56.866Z,71.13
2018-07-23T21:58:24.753Z,71.19
2018-07-23T22:00:51.849Z,71.74
2018-07-23T22:03:18.876Z,71.76
2018-07-23T22:05:45.885Z,72.14
2018-07-23T22:08:13.236Z,71.95
2018-07-23T22:10:40.248Z,72.00
2018-07-23T22:13:07.347Z,72.35
2018-07-23T22:15:34.298Z,72.63
2018-07-23T22:18:01.444Z,72.40
2018-07-23T22:20:28.444Z,73.18
2018-07-23T22:22:55.650Z,73.35
2018-07-23T22:25:22.744Z,74.24
2018-07-23T22:27:49.769Z,74.88
2018-07-23T22:30:16.840Z,74.42
2018-07-23T22:32:43.800Z,74.49
2018-07-23T22:35:10.856Z,74.82
2018-07-23T22:37:38.330Z,74.47
2018-07-23T22:40:05.676Z,75.75
2018-07-23T22:42:34.127Z,75.28
2018-07-23T22:45:01.149Z,75.05
2018-07-23T22:47:28.245Z,75.87
2018-07-23T22:49:55.382Z,75.07
2018-07-23T22:52:22.387Z,75.53
2018-07-23T22:54:49.457Z,74.79
2018-07-23T22:57:16.549Z,75.67
2018-07-23T22:59:43.543Z,75.64
2018-07-23T23:02:10.608Z,76.01
2018-07-23T23:04:37.594Z,75.62
2018-07-23T23:07:04.665Z,75.63
2018-07-23T23:09:32.668Z,76.20
2018-07-23T23:11:59.688Z,76.25
2018-07-23T23:14:26.752Z,76.72
2018-07-23T23:16:53.831Z,76.59
2018-07-23T23:19:20.877Z,77.63
2018-07-23T23:21:47.873Z,77.16
2018-07-23T23:24:14.989Z,77.29
2018-07-23T23:26:41.994Z,77.72
2018-07-23T23:29:09.085Z,76.99
2018-07-23T23:31:36.406Z,76.82
2018-07-23T23:34:03.420Z,77.17
2018-07-23T23:36:30.512Z,77.84
2018-07-23T23:38:57.516Z,78.12
2018-07-23T23:41:24.508Z,77.86
2018-07-23T23:43:51.580Z,78.37
2018-07-23T23:46:18.665Z,78.54
2018-07-23T23:48:45.665Z,78.53
2018-07-23T23:51:12.668Z,79.69
2018-07-23T23:53:39.708Z,79.73
2018-07-23T23:56:06.846Z,79.34
2018-07-23T23:58:33.861Z,80.28
